Time;durP1;ratioP1;P1;durP2;ratioP2;P2;SDS_P1;SDS_P2;PMS_P1;PMS_P2;Temp;Humidity;BMP_temperature;BMP_pressure;BME280_temperature;BME280_humidity;BME280_pressure;Samples;Min_cycle;Max_cycle;Signal;HPM_P1;HPM_P2
2023/06/21 00:01:49;;;;;;;9.07;8.20;;;19.40;99.90;;;;;;4979182;28;20049;-94
2023/06/21 00:04:15;;;;;;;7.97;7.28;;;19.40;99.90;;;;;;4964155;28;20038;-94
2023/06/21 00:06:46;;;;;;;8.60;7.80;;;19.40;99.90;;;;;;4982570;28;20041;-95
2023/06/21 00:09:12;;;;;;;7.80;7.07;;;19.40;99.90;;;;;;4990925;28;20045;-94
2023/06/21 00:11:39;;;;;;;7.97;7.25;;;19.40;99.90;;;;;;4982408;28;20051;-94
2023/06/21 00:14:04;;;;;;;8.98;7.30;;;19.40;99.90;;;;;;4968968;28;20034;-95
2023/06/21 00:16:31;;;;;;;7.90;7.20;;;19.40;99.90;;;;;;4983587;28;20044;-95
2023/06/21 00:18:57;;;;;;;8.15;7.38;;;19.30;99.90;;;;;;4996921;28;20038;-95
2023/06/21 00:21:23;;;;;;;8.32;7.53;;;19.30;99.90;;;;;;4967469;28;20545;-94
2023/06/21 00:23:49;;;;;;;8.40;7.60;;;19.40;99.90;;;;;;4964208;28;20129;-95
2023/06/21 00:26:15;;;;;;;8.98;8.07;;;19.30;99.90;;;;;;4995322;28;20496;-96
2023/06/21 00:28:40;;;;;;;8.73;7.93;;;19.30;99.90;;;;;;4976155;28;20080;-95
2023/06/21 00:31:10;;;;;;;9.27;8.35;;;19.30;99.90;;;;;;4967249;28;20052;-95
2023/06/21 00:33:36;;;;;;;9.43;8.45;;;19.40;99.90;;;;;;4985878;28;20488;-94
2023/06/21 00:36:02;;;;;;;9.65;8.65;;;19.30;99.90;;;;;;4994546;28;20042;-96
2023/06/21 00:38:35;;;;;;;10.13;9.10;;;19.30;99.90;;;;;;4991701;28;20038;-95
2023/06/21 00:41:03;;;;;;;12.07;8.90;;;19.30;99.90;;;;;;4974830;28;20125;-95
2023/06/21 00:43:29;;;;;;;11.38;9.27;;;19.30;99.90;;;;;;4999062;28;20076;-96
2023/06/21 00:45:55;;;;;;;11.88;9.32;;;19.30;99.90;;;;;;4966478;28;20096;-96
2023/06/21 00:48:21;;;;;;;10.20;9.20;;;19.20;99.90;;;;;;4981477;28;20049;-95
2023/06/21 00:50:46;;;;;;;9.85;8.95;;;19.30;99.90;;;;;;5001758;28;20116;-94
2023/06/21 00:53:12;;;;;;;11.82;9.57;;;19.30;99.90;;;;;;4974592;28;20123;-95
2023/06/21 00:55:40;;;;;;;10.35;9.35;;;19.30;99.90;;;;;;4982000;28;20041;-96
2023/06/21 00:58:07;;;;;;;10.10;9.00;;;19.30;99.90;;;;;;4956412;28;20388;-95
2023/06/21 01:00:33;;;;;;;10.07;9.20;;;19.30;99.90;;;;;;4993675;28;20132;-95
2023/06/21 01:02:58;;;;;;;10.43;9.40;;;19.20;99.90;;;;;;5000739;28;20077;-95
2023/06/21 01:05:26;;;;;;;12.10;10.80;;;19.20;99.90;;;;;;4985763;28;20498;-95
2023/06/21 01:08:31;;;;;;;11.70;10.00;;;19.20;99.90;;;;;;4983325;28;20050;-95
2023/06/21 01:11:24;;;;;;;14.25;9.93;;;19.20;99.90;;;;;;5001036;28;20038;-95
2023/06/21 01:14:24;;;;;;;11.45;10.27;;;19.30;99.90;;;;;;4986440;28;20049;-95
2023/06/21 01:16:54;;;;;;;11.95;10.75;;;19.20;99.90;;;;;;4989921;28;20098;-95
2023/06/21 01:19:50;;;;;;;12.18;10.88;;;19.30;99.90;;;;;;4985674;28;20042;-96
2023/06/21 01:22:22;;;;;;;13.05;11.80;;;19.30;99.90;;;;;;4986686;28;20065;-95
2023/06/21 01:25:08;;;;;;;14.25;12.48;;;19.30;99.90;;;;;;4989065;28;20038;-95
2023/06/21 01:27:53;;;;;;;13.45;12.15;;;19.20;99.90;;;;;;4993483;28;20109;-94
2023/06/21 01:30:21;;;;;;;12.98;11.70;;;19.30;99.90;;;;;;4996022;28;20120;-95
2023/06/21 01:32:53;;;;;;;13.13;11.82;;;19.30;99.90;;;;;;4980154;28;20041;-96
2023/06/21 01:35:24;;;;;;;13.80;12.43;;;19.20;99.90;;;;;;4980241;28;20575;-95
2023/06/21 01:37:51;;;;;;;14.10;12.60;;;19.30;99.90;;;;;;5000021;28;20037;-96
2023/06/21 01:40:17;;;;;;;14.43;11.95;;;19.30;99.90;;;;;;4999467;28;20044;-95
2023/06/21 01:42:44;;;;;;;13.63;12.33;;;19.30;99.90;;;;;;4983431;28;20041;-95
2023/06/21 01:45:12;;;;;;;14.30;12.90;;;19.20;99.90;;;;;;4993908;28;20481;-95
2023/06/21 01:47:41;;;;;;;14.10;12.70;;;19.30;99.90;;;;;;4998551;28;20098;-96
2023/06/21 01:50:08;;;;;;;15.10;12.50;;;19.30;99.90;;;;;;5000378;28;20049;-96
2023/06/21 01:52:34;;;;;;;;;;;19.30;99.90;;;;;;4982811;28;20045;-95
2023/06/21 01:55:00;;;;;;;13.30;12.02;;;19.20;99.90;;;;;;4999254;28;19917;-96
2023/06/21 01:57:35;;;;;;;13.45;12.10;;;19.20;99.90;;;;;;4993434;28;20046;-95
2023/06/21 02:00:13;;;;;;;12.40;11.30;;;19.20;99.90;;;;;;4988960;28;20084;-95
2023/06/21 02:02:45;;;;;;;13.70;12.27;;;19.30;99.90;;;;;;4999861;28;20041;-95
2023/06/21 02:05:14;;;;;;;14.45;12.95;;;19.20;99.90;;;;;;5000313;28;20492;-95
2023/06/21 02:07:45;;;;;;;16.00;12.73;;;19.30;99.90;;;;;;5000034;28;20048;-96
2023/06/21 02:10:16;;;;;;;14.25;12.88;;;19.30;99.90;;;;;;4999595;28;20041;-95
2023/06/21 02:12:42;;;;;;;14.45;12.93;;;19.20;99.90;;;;;;5000163;28;20116;-96
2023/06/21 02:15:11;;;;;;;13.85;12.18;;;19.30;99.90;;;;;;4999490;28;20059;-96
2023/06/21 02:17:38;;;;;;;14.05;12.75;;;19.20;99.90;;;;;;4999841;28;20151;-95
2023/06/21 02:20:13;;;;;;;16.02;13.60;;;19.20;99.90;;;;;;4987834;28;20128;-96
2023/06/21 02:22:41;;;;;;;14.82;12.93;;;19.20;99.90;;;;;;4994780;28;20128;-96
2023/06/21 02:25:11;;;;;;;15.10;13.50;;;19.20;99.90;;;;;;4993958;28;20052;-96
2023/06/21 02:27:37;;;;;;;15.13;13.65;;;19.20;99.90;;;;;;4980774;28;20147;-96
2023/06/21 02:30:04;;;;;;;14.43;13.03;;;19.20;99.90;;;;;;4993578;28;20452;-96
2023/06/21 02:32:30;;;;;;;15.70;13.65;;;19.20;99.90;;;;;;4985792;28;20041;-95
2023/06/21 02:34:56;;;;;;;14.50;13.20;;;19.20;99.90;;;;;;4994619;28;20061;-95
2023/06/21 02:37:22;;;;;;;15.75;14.13;;;19.30;99.90;;;;;;4992013;28;20038;-95
2023/06/21 02:39:48;;;;;;;16.75;15.00;;;19.20;99.90;;;;;;4987628;28;20092;-95
2023/06/21 02:42:16;;;;;;;16.38;14.68;;;19.20;99.90;;;;;;4985981;28;20482;-96
2023/06/21 02:44:42;;;;;;;20.08;14.75;;;19.40;99.90;;;;;;4975729;28;20469;-94
2023/06/21 02:47:08;;;;;;;16.17;14.63;;;19.20;99.90;;;;;;4985494;28;20072;-96
2023/06/21 02:49:36;;;;;;;18.35;15.43;;;19.20;99.90;;;;;;4994422;28;20088;-94
2023/06/21 02:52:06;;;;;;;16.50;14.80;;;19.20;99.90;;;;;;4966948;28;20030;-95
2023/06/21 02:54:52;;;;;;;17.35;15.68;;;19.20;99.90;;;;;;4995597;28;20129;-95
2023/06/21 02:57:19;;;;;;;19.13;17.23;;;19.10;99.90;;;;;;4995781;28;20034;-96
2023/06/21 02:59:44;;;;;;;17.88;16.05;;;19.10;99.90;;;;;;4994156;28;20045;-95
2023/06/21 03:02:10;;;;;;;18.83;16.75;;;19.20;99.90;;;;;;4980097;28;20041;-96
2023/06/21 03:04:36;;;;;;;19.13;16.67;;;19.10;99.90;;;;;;4995232;28;20047;-94
2023/06/21 03:07:05;;;;;;;19.23;17.30;;;19.00;99.90;;;;;;4979473;28;20104;-96
2023/06/21 03:09:32;;;;;;;19.08;17.08;;;19.00;99.90;;;;;;4995449;28;20042;-96
2023/06/21 03:11:57;;;;;;;;;;;18.90;99.90;;;;;;4997017;28;20034;-95
2023/06/21 03:14:24;;;;;;;18.42;16.60;;;19.00;99.90;;;;;;4995460;28;19940;-96
2023/06/21 03:16:50;;;;;;;19.35;17.30;;;19.00;99.90;;;;;;4976159;28;20630;-96
2023/06/21 03:19:17;;;;;;;19.30;17.30;;;18.90;99.90;;;;;;4995659;28;20038;-96
2023/06/21 03:21:43;;;;;;;21.08;18.73;;;18.90;99.90;;;;;;4994626;28;20042;-95
2023/06/21 03:24:09;;;;;;;19.30;17.35;;;18.80;99.90;;;;;;4993152;28;20045;-96
2023/06/21 03:26:35;;;;;;;20.45;18.30;;;18.90;99.90;;;;;;4989599;28;20050;-95
2023/06/21 03:29:02;;;;;;;20.05;18.00;;;18.80;99.90;;;;;;4994941;28;20121;-96
2023/06/21 03:31:28;;;;;;;22.77;19.55;;;18.90;99.90;;;;;;4994143;28;20547;-95
2023/06/21 03:33:55;;;;;;;20.25;18.15;;;18.90;99.90;;;;;;4995341;28;20067;-95
2023/06/21 03:36:23;;;;;;;19.58;17.48;;;18.90;99.90;;;;;;4977337;28;20131;-94
2023/06/21 03:38:49;;;;;;;20.60;18.58;;;18.80;99.90;;;;;;4995688;28;20489;-96
2023/06/21 03:41:18;;;;;;;21.00;18.80;;;18.90;99.90;;;;;;4995621;28;20046;-96
2023/06/21 03:43:44;;;;;;;22.13;19.83;;;18.80;99.90;;;;;;4993968;28;20041;-95
2023/06/21 03:46:11;;;;;;;22.05;19.50;;;18.90;99.90;;;;;;4994890;28;20042;-96
2023/06/21 03:48:37;;;;;;;22.35;20.10;;;18.80;99.90;;;;;;4992103;28;20072;-95
2023/06/21 03:51:08;;;;;;;22.60;20.20;;;18.90;99.90;;;;;;4987924;28;20046;-96
2023/06/21 03:53:34;;;;;;;22.77;20.50;;;18.80;99.90;;;;;;4996525;28;20064;-96
2023/06/21 03:56:05;;;;;;;21.80;19.60;;;18.90;99.90;;;;;;4996938;28;20037;-96
2023/06/21 03:58:34;;;;;;;22.58;20.17;;;18.90;99.90;;;;;;4997254;28;20037;-96
2023/06/21 04:00:59;;;;;;;21.35;19.05;;;18.90;99.90;;;;;;4995012;28;20038;-95
2023/06/21 04:03:26;;;;;;;22.73;20.40;;;18.80;99.90;;;;;;4990210;28;20105;-95
2023/06/21 04:05:54;;;;;;;22.23;19.87;;;18.90;99.90;;;;;;4993595;28;20073;-96
2023/06/21 04:08:20;;;;;;;22.48;20.23;;;18.90;99.90;;;;;;4998907;28;20469;-95
2023/06/21 04:10:49;;;;;;;21.45;19.25;;;18.90;99.90;;;;;;5006744;28;20095;-96
2023/06/21 04:13:18;;;;;;;21.73;19.52;;;18.80;99.90;;;;;;4999012;28;20124;-96
2023/06/21 04:15:46;;;;;;;22.98;20.63;;;18.90;99.90;;;;;;4995955;28;20039;-96
2023/06/21 04:18:11;;;;;;;21.90;19.63;;;18.80;99.90;;;;;;4997740;28;20054;-96
2023/06/21 04:20:37;;;;;;;22.60;19.55;;;18.80;99.90;;;;;;4995304;28;20045;-96
2023/06/21 04:23:03;;;;;;;20.23;18.23;;;18.90;99.90;;;;;;4989703;28;20042;-96
2023/06/21 04:25:29;;;;;;;20.40;18.20;;;18.80;99.90;;;;;;4996698;28;20481;-96
2023/06/21 04:27:55;;;;;;;21.95;19.42;;;18.90;99.90;;;;;;4998747;28;20081;-96
2023/06/21 04:30:21;;;;;;;22.42;19.98;;;18.90;99.90;;;;;;4980947;28;20502;-96
2023/06/21 04:32:47;;;;;;;24.02;20.17;;;18.50;99.90;;;;;;4966092;28;20042;-96
2023/06/21 04:35:16;;;;;;;24.83;20.85;;;18.90;99.90;;;;;;4997211;28;20117;-96
2023/06/21 04:37:44;;;;;;;22.65;20.23;;;19.00;99.90;;;;;;4998761;28;20504;-96
2023/06/21 04:40:17;;;;;;;21.30;19.13;;;19.10;99.90;;;;;;4997656;28;20046;-96
2023/06/21 04:42:45;;;;;;;21.05;18.88;;;19.10;99.90;;;;;;4959479;28;20042;-95
2023/06/21 04:45:15;;;;;;;21.98;19.70;;;19.10;99.90;;;;;;4996540;28;20112;-95
2023/06/21 04:47:47;;;;;;;19.65;17.55;;;19.10;99.90;;;;;;4997930;28;20125;-96
2023/06/21 04:50:14;;;;;;;22.42;18.45;;;19.20;99.90;;;;;;4978137;28;20057;-95
2023/06/21 04:52:47;;;;;;;22.00;19.63;;;19.20;99.90;;;;;;4998251;28;20037;-96
2023/06/21 04:55:18;;;;;;;20.88;18.27;;;19.10;99.90;;;;;;4998147;28;20041;-95
2023/06/21 04:57:46;;;;;;;20.15;18.08;;;19.20;99.90;;;;;;4981780;28;20516;-96
2023/06/21 05:00:12;;;;;;;19.15;17.17;;;19.20;99.90;;;;;;4997765;28;20077;-96
2023/06/21 05:02:39;;;;;;;21.30;18.30;;;19.20;99.90;;;;;;4969458;28;20046;-95
2023/06/21 05:05:04;;;;;;;18.98;17.05;;;19.20;99.90;;;;;;4997751;28;20038;-96
2023/06/21 05:07:30;;;;;;;19.08;17.08;;;19.10;99.90;;;;;;4996296;28;20041;-94
2023/06/21 05:10:02;;;;;;;17.50;15.30;;;19.20;99.90;;;;;;4971985;28;20057;-95
2023/06/21 05:12:31;;;;;;;17.05;14.98;;;19.20;99.90;;;;;;4982036;28;20046;-95
2023/06/21 05:15:00;;;;;;;15.38;13.77;;;19.20;99.90;;;;;;4976393;28;20111;-96
2023/06/21 05:17:25;;;;;;;16.42;14.73;;;19.20;99.90;;;;;;4976378;28;20448;-96
2023/06/21 05:19:51;;;;;;;15.48;13.85;;;19.10;99.90;;;;;;4977667;28;20042;-96
2023/06/21 05:22:17;;;;;;;14.93;13.43;;;19.20;99.90;;;;;;4988328;28;20091;-96
2023/06/21 05:24:43;;;;;;;15.57;13.77;;;19.30;99.90;;;;;;4992491;28;20143;-96
2023/06/21 05:27:12;;;;;;;14.88;13.35;;;19.30;99.90;;;;;;4993566;28;20034;-96
2023/06/21 05:29:38;;;;;;;15.40;12.93;;;19.30;99.90;;;;;;4993980;28;20080;-96
2023/06/21 05:33:21;;;;;;;;;;;;;;;;;;;;;
2023/06/21 05:36:16;;;;;;;13.70;12.00;;;19.20;99.90;;;;;;4992762;28;20053;-88
2023/06/21 05:38:42;;;;;;;14.73;11.02;;;19.50;99.90;;;;;;4979918;28;20041;-88
2023/06/21 05:41:07;;;;;;;12.13;10.77;;;19.40;99.90;;;;;;4994316;28;20049;-90
2023/06/21 05:43:33;;;;;;;14.23;10.88;;;19.50;99.90;;;;;;4964831;28;20041;-90
2023/06/21 05:45:59;;;;;;;15.18;10.63;;;19.50;99.90;;;;;;4978171;28;20074;-88
2023/06/21 05:48:24;;;;;;;12.80;10.73;;;19.60;99.90;;;;;;4961956;28;20121;-90
2023/06/21 05:50:54;;;;;;;11.32;10.23;;;19.60;99.90;;;;;;4977462;28;20042;-94
2023/06/21 05:53:20;;;;;;;12.20;10.10;;;19.60;99.90;;;;;;4987038;28;20041;-89
2023/06/21 05:55:48;;;;;;;12.48;10.18;;;19.70;99.90;;;;;;4961179;28;20100;-86
2023/06/21 05:58:13;;;;;;;11.38;9.07;;;19.70;99.90;;;;;;4990367;28;20033;-87
2023/06/21 06:00:39;;;;;;;10.35;9.30;;;19.70;99.90;;;;;;4963579;28;20048;-88
2023/06/21 06:03:05;;;;;;;10.32;9.23;;;19.70;99.90;;;;;;4982603;28;20124;-89
2023/06/21 06:05:30;;;;;;;10.60;8.95;;;19.80;99.90;;;;;;4997397;28;20044;-89
2023/06/21 06:07:56;;;;;;;10.40;9.07;;;19.70;99.90;;;;;;5010085;28;20057;-89
2023/06/21 06:10:22;;;;;;;10.38;8.52;;;19.80;99.90;;;;;;5014662;28;20034;-88
2023/06/21 06:12:47;;;;;;;11.32;8.65;;;19.70;99.90;;;;;;4995300;28;20022;-88
2023/06/21 06:15:13;;;;;;;10.13;9.07;;;19.70;99.90;;;;;;4998609;28;20037;-91
2023/06/21 06:17:39;;;;;;;10.48;8.15;;;19.80;99.90;;;;;;4977336;28;20042;-81
2023/06/21 06:20:06;;;;;;;9.23;7.80;;;20.30;99.90;;;;;;4969228;28;20197;-90
2023/06/21 06:22:36;;;;;;;9.77;8.45;;;20.80;99.90;;;;;;4949589;28;20374;-90
2023/06/21 06:25:02;;;;;;;8.75;7.85;;;20.90;99.90;;;;;;4994499;28;20153;-89
2023/06/21 06:27:28;;;;;;;8.98;7.07;;;20.90;99.90;;;;;;4980079;28;20100;-90
2023/06/21 06:29:54;;;;;;;8.48;7.32;;;20.90;99.90;;;;;;4990270;28;20038;-88
2023/06/21 06:32:19;;;;;;;9.23;7.75;;;20.80;99.90;;;;;;4973267;28;20068;-88
2023/06/21 06:34:45;;;;;;;9.48;7.95;;;20.80;99.90;;;;;;4957644;28;20052;-88
2023/06/21 06:37:11;;;;;;;10.75;7.90;;;20.80;99.90;;;;;;4981428;28;20037;-89
2023/06/21 06:39:37;;;;;;;8.85;7.78;;;20.70;99.90;;;;;;4958660;28;20060;-89
2023/06/21 06:42:03;;;;;;;10.63;8.63;;;20.70;99.90;;;;;;4992882;28;20046;-88
2023/06/21 06:44:29;;;;;;;9.73;7.70;;;20.70;99.90;;;;;;4960645;28;20473;-90
2023/06/21 06:46:55;;;;;;;8.77;7.85;;;20.70;99.90;;;;;;4978860;28;20475;-89
2023/06/21 06:49:20;;;;;;;9.45;8.00;;;20.80;99.90;;;;;;4961454;28;20435;-87
2023/06/21 06:51:46;;;;;;;9.20;7.65;;;20.90;99.90;;;;;;4964411;28;20065;-89
2023/06/21 06:54:12;;;;;;;8.63;7.70;;;21.20;99.90;;;;;;4990228;28;20045;-89
2023/06/21 06:56:37;;;;;;;8.50;7.47;;;22.00;99.90;;;;;;4977508;28;20146;-89
2023/06/21 06:59:03;;;;;;;7.57;6.88;;;23.00;99.90;;;;;;4981574;28;20650;-90
2023/06/21 07:01:29;;;;;;;7.57;6.60;;;23.70;99.90;;;;;;5001671;28;20045;-90
2023/06/21 07:03:56;;;;;;;7.30;6.60;;;24.20;99.90;;;;;;4983466;28;20041;-89
2023/06/21 07:06:21;;;;;;;;;;;24.80;99.90;;;;;;5016297;28;20084;-90
2023/06/21 07:08:47;;;;;;;6.65;5.95;;;24.70;99.90;;;;;;4983468;28;19920;-90
2023/06/21 07:11:13;;;;;;;7.18;6.25;;;25.10;99.90;;;;;;4982853;28;20052;-89
2023/06/21 07:13:39;;;;;;;6.93;5.20;;;25.70;99.90;;;;;;4982981;28;20684;-89
2023/06/21 07:16:05;;;;;;;6.93;5.13;;;26.20;99.90;;;;;;5015810;28;20034;-90
2023/06/21 07:18:30;;;;;;;6.00;5.40;;;26.40;99.90;;;;;;4986337;28;20033;-90
2023/06/21 07:20:56;;;;;;;5.57;4.97;;;26.60;99.90;;;;;;4975750;28;20088;-91
2023/06/21 07:23:22;;;;;;;7.43;4.50;;;26.90;99.90;;;;;;4967022;28;20042;-90
2023/06/21 07:25:48;;;;;;;4.60;4.20;;;27.20;99.90;;;;;;4990202;28;20053;-91
2023/06/21 07:28:14;;;;;;;5.90;4.80;;;27.30;99.90;;;;;;5004792;28;20064;-90
2023/06/21 07:30:42;;;;;;;4.97;4.13;;;27.20;99.90;;;;;;5000066;28;20049;-90
2023/06/21 07:33:08;;;;;;;5.93;4.25;;;27.20;99.90;;;;;;5016695;28;20033;-88
2023/06/21 07:35:34;;;;;;;5.63;3.97;;;27.00;99.90;;;;;;4998703;28;20041;-90
2023/06/21 07:38:00;;;;;;;5.00;4.00;;;26.90;99.90;;;;;;4983705;28;20044;-90
2023/06/21 07:40:26;;;;;;;4.10;3.70;;;27.20;99.90;;;;;;4980217;28;20033;-91
2023/06/21 07:42:51;;;;;;;4.33;3.93;;;27.40;99.90;;;;;;4992309;28;20087;-89
2023/06/21 07:45:17;;;;;;;5.43;3.63;;;27.70;99.90;;;;;;4962058;28;20049;-89
2023/06/21 07:47:43;;;;;;;4.97;4.10;;;27.40;99.90;;;;;;4973571;28;20034;-89
2023/06/21 07:50:09;;;;;;;4.90;4.07;;;27.20;99.90;;;;;;4953817;28;20046;-89
2023/06/21 07:52:35;;;;;;;4.85;3.13;;;27.10;99.90;;;;;;4966267;28;20041;-87
2023/06/21 07:55:01;;;;;;;5.53;3.40;;;27.30;99.90;;;;;;4977836;28;20030;-90
2023/06/21 07:57:27;;;;;;;4.18;3.22;;;27.30;99.90;;;;;;4976688;28;20038;-89
2023/06/21 07:59:53;;;;;;;3.53;2.77;;;27.00;99.90;;;;;;4995020;28;20044;-90
2023/06/21 08:02:18;;;;;;;4.87;3.23;;;26.60;99.90;;;;;;4987738;28;20057;-89
2023/06/21 08:04:45;;;;;;;5.77;3.20;;;26.20;99.90;;;;;;4960685;28;20049;-88
2023/06/21 08:07:12;;;;;;;5.03;3.17;;;25.80;99.90;;;;;;4991288;28;20081;-87
2023/06/21 08:09:38;;;;;;;5.13;3.50;;;25.50;99.90;;;;;;4976267;28;20048;-89
2023/06/21 08:12:04;;;;;;;4.03;3.50;;;25.20;99.90;;;;;;4959177;28;20042;-89
2023/06/21 08:14:30;;;;;;;5.65;3.70;;;24.80;99.90;;;;;;4997198;28;20464;-89
2023/06/21 08:16:56;;;;;;;4.40;3.67;;;24.40;99.90;;;;;;4978181;28;20041;-89
2023/06/21 08:19:21;;;;;;;5.03;3.90;;;24.30;99.90;;;;;;4975660;28;20080;-89
2023/06/21 08:21:47;;;;;;;5.60;3.33;;;24.10;99.90;;;;;;4989884;28;20712;-89
2023/06/21 08:24:13;;;;;;;4.17;3.37;;;24.10;99.90;;;;;;4992664;28;20100;-89
2023/06/21 08:26:39;;;;;;;4.10;3.43;;;24.20;99.90;;;;;;4959771;28;20535;-88
2023/06/21 08:29:04;;;;;;;5.47;3.43;;;24.40;99.90;;;;;;4997427;28;20042;-89
2023/06/21 08:31:30;;;;;;;3.17;2.83;;;24.40;99.90;;;;;;4980293;28;20249;-88
2023/06/21 08:33:56;;;;;;;5.03;3.70;;;24.40;99.90;;;;;;4974431;28;20034;-90
2023/06/21 08:36:22;;;;;;;5.53;3.70;;;24.30;99.90;;;;;;4966247;28;20037;-90
2023/06/21 08:38:48;;;;;;;4.28;3.80;;;24.10;99.90;;;;;;4979396;28;20562;-89
2023/06/21 08:41:14;;;;;;;4.67;3.57;;;24.00;99.90;;;;;;4969512;28;20041;-89
2023/06/21 08:43:40;;;;;;;5.67;3.40;;;24.10;99.90;;;;;;4971060;28;20120;-90
2023/06/21 08:46:07;;;;;;;3.78;3.22;;;24.30;99.90;;;;;;4995715;28;20029;-89
2023/06/21 08:48:35;;;;;;;4.65;3.33;;;24.40;99.90;;;;;;5005798;28;20037;-96
2023/06/21 08:51:04;;;;;;;7.47;3.75;;;24.80;99.90;;;;;;5004052;28;20128;-95
2023/06/21 08:53:56;;;;;;;6.25;3.45;;;24.70;99.90;;;;;;5001974;28;20496;-96
2023/06/21 08:56:51;;;;;;;4.13;3.10;;;24.70;99.90;;;;;;4996529;28;20484;-96
2023/06/21 08:59:41;;;;;;;7.35;3.60;;;24.70;99.90;;;;;;4994947;28;20042;-96
2023/06/21 09:02:35;;;;;;;4.43;3.63;;;24.60;99.90;;;;;;4999470;28;20038;-94
2023/06/21 09:05:06;;;;;;;3.83;3.13;;;24.70;99.90;;;;;;4988902;28;20041;-94
2023/06/21 09:07:35;;;;;;;8.15;2.92;;;24.80;99.90;;;;;;4997186;28;20050;-95
2023/06/21 09:10:03;;;;;;;36.90;5.70;;;24.90;99.90;;;;;;4982821;28;20045;-95
2023/06/21 09:12:31;;;;;;;5.85;3.08;;;25.00;99.90;;;;;;4974190;28;20554;-95
2023/06/21 09:15:03;;;;;;;3.50;2.97;;;25.40;99.90;;;;;;5002240;28;20235;-96
2023/06/21 09:17:30;;;;;;;6.72;3.20;;;25.70;99.90;;;;;;4979683;28;20125;-96
2023/06/21 09:19:57;;;;;;;7.60;3.17;;;26.00;99.90;;;;;;4992287;28;20555;-96
2023/06/21 09:22:24;;;;;;;;;;;26.10;99.90;;;;;;4980448;28;20049;-95
2023/06/21 09:24:51;;;;;;;5.28;2.78;;;26.20;99.90;;;;;;5001072;28;19921;-96
2023/06/21 09:27:17;;;;;;;6.50;2.42;;;26.10;99.90;;;;;;5001981;28;20137;-96
2023/06/21 09:29:44;;;;;;;4.03;2.28;;;26.10;99.90;;;;;;5001917;28;20037;-96
2023/06/21 09:32:09;;;;;;;4.32;2.38;;;26.00;99.90;;;;;;5006081;28;20120;-96
2023/06/21 09:34:38;;;;;;;3.47;2.27;;;26.00;99.90;;;;;;5006163;28;20041;-96
2023/06/21 09:37:04;;;;;;;2.75;2.00;;;25.90;99.90;;;;;;4980964;28;20507;-95
2023/06/21 09:39:30;;;;;;;6.57;2.83;;;26.00;99.90;;;;;;4980430;28;20065;-95
2023/06/21 09:41:56;;;;;;;3.60;2.60;;;25.90;99.90;;;;;;4973748;28;20042;-94
2023/06/21 09:44:25;;;;;;;3.53;2.27;;;25.90;99.90;;;;;;5000060;28;20064;-95
2023/06/21 09:46:58;;;;;;;3.10;2.33;;;25.70;99.90;;;;;;4999683;28;20487;-96
2023/06/21 09:49:26;;;;;;;4.00;2.35;;;25.60;99.90;;;;;;5000705;28;20120;-96
2023/06/21 10:10:05;;;;;;;4.10;2.42;;;25.70;99.90;;;;;;5009060;28;20054;-96
2023/06/21 10:12:34;;;;;;;2.45;2.20;;;25.70;99.90;;;;;;4975378;28;20097;-96
2023/06/21 10:14:59;;;;;;;3.15;2.30;;;25.50;99.90;;;;;;4963864;28;20070;-96
2023/06/21 10:17:27;;;;;;;3.00;2.60;;;25.40;99.90;;;;;;4965903;28;20691;-96
2023/06/21 10:19:54;;;;;;;3.47;2.67;;;25.30;99.90;;;;;;4975705;28;20038;-96
2023/06/21 10:22:21;;;;;;;4.38;2.55;;;25.20;99.90;;;;;;4970337;28;20042;-95
2023/06/21 10:24:51;;;;;;;3.63;2.05;;;25.20;99.90;;;;;;4972019;28;20505;-96
2023/06/21 10:27:19;;;;;;;3.10;2.30;;;25.10;99.90;;;;;;4973483;28;20038;-95
2023/06/21 10:29:52;;;;;;;3.38;2.50;;;25.10;99.90;;;;;;4981197;28;20062;-96
2023/06/21 10:32:22;;;;;;;4.18;2.58;;;25.10;99.90;;;;;;4978187;28;20486;-96
2023/06/21 10:35:15;;;;;;;2.60;2.10;;;25.00;99.90;;;;;;4974580;28;20497;-95
2023/06/21 10:38:01;;;;;;;3.63;2.10;;;25.00;99.90;;;;;;4972181;28;20556;-93
2023/06/21 10:40:29;;;;;;;2.33;1.75;;;25.00;99.90;;;;;;4979231;28;20042;-96
2023/06/21 10:42:56;;;;;;;3.00;1.45;;;25.30;99.90;;;;;;4955440;28;20033;-95
2023/06/21 10:45:21;;;;;;;2.33;1.90;;;25.20;99.90;;;;;;4959658;28;20579;-94
2023/06/21 10:47:48;;;;;;;3.07;1.70;;;25.30;99.90;;;;;;4968312;28;20046;-95
2023/06/21 10:50:14;;;;;;;3.30;1.80;;;25.50;99.90;;;;;;4953686;28;20239;-95
2023/06/21 10:52:41;;;;;;;3.25;1.90;;;25.50;99.90;;;;;;4958682;28;20385;-96
2023/06/21 10:55:07;;;;;;;;;;;25.50;99.90;;;;;;4969008;28;20088;-95
2023/06/21 10:57:37;;;;;;;2.85;1.50;;;25.50;99.90;;;;;;4964610;28;19926;-96
2023/06/21 11:00:05;;;;;;;3.45;1.67;;;25.40;99.90;;;;;;4975217;28;20481;-96
2023/06/21 11:02:32;;;;;;;2.00;1.40;;;25.30;99.90;;;;;;4977289;28;20068;-95
2023/06/21 11:05:21;;;;;;;1.95;1.70;;;25.40;99.90;;;;;;4959070;28;20429;-95
2023/06/21 11:07:54;;;;;;;2.13;1.60;;;25.50;99.90;;;;;;4985650;28;20049;-95
2023/06/21 11:10:40;;;;;;;2.25;1.40;;;25.60;99.90;;;;;;4976813;28;20046;-96
2023/06/21 11:13:07;;;;;;;2.42;1.75;;;25.80;99.90;;;;;;4976290;28;20033;-95
2023/06/21 11:15:33;;;;;;;1.52;1.35;;;25.70;99.90;;;;;;4964939;28;20045;-96
2023/06/21 11:18:01;;;;;;;2.17;1.70;;;25.70;99.90;;;;;;4946804;28;20492;-93
2023/06/21 11:20:28;;;;;;;3.50;1.73;;;25.60;99.90;;;;;;4968828;28;20093;-96
2023/06/21 11:22:59;;;;;;;2.88;1.63;;;25.40;99.90;;;;;;4982044;28;20080;-96
2023/06/21 11:25:26;;;;;;;3.80;1.70;;;25.30;99.90;;;;;;4968334;28;20042;-95
2023/06/21 11:28:18;;;;;;;2.05;1.25;;;25.30;99.90;;;;;;4960930;28;20046;-94
2023/06/21 11:31:03;;;;;;;2.85;1.58;;;25.30;99.90;;;;;;4980074;28;20486;-96
2023/06/21 11:33:59;;;;;;;3.63;1.50;;;25.10;99.90;;;;;;4976825;28;20040;-96
2023/06/21 11:36:31;;;;;;;3.13;1.60;;;24.90;99.90;;;;;;4975530;28;20038;-91
2023/06/21 11:39:05;;;;;;;14.55;3.25;;;24.90;99.90;;;;;;4966016;28;20470;-91
2023/06/21 11:41:43;;;;;;;7.55;2.67;;;25.10;99.90;;;;;;4965068;28;20038;-90
2023/06/21 11:44:11;;;;;;;3.88;1.40;;;25.40;99.90;;;;;;4963619;28;20075;-90
2023/06/21 11:46:39;;;;;;;2.08;1.27;;;25.60;99.90;;;;;;4967728;28;20390;-90
2023/06/21 11:49:05;;;;;;;1.50;1.20;;;25.80;99.90;;;;;;4977699;28;20046;-91
2023/06/21 11:51:35;;;;;;;2.47;1.52;;;26.10;99.90;;;;;;4963589;28;20034;-92
2023/06/21 11:54:01;;;;;;;5.25;2.72;;;26.20;99.90;;;;;;4952691;28;20092;-91
2023/06/21 11:56:32;;;;;;;5.50;1.35;;;26.40;99.90;;;;;;4961758;28;20045;-91
2023/06/21 11:58:59;;;;;;;9.02;2.25;;;26.50;99.90;;;;;;4965038;28;20068;-92
2023/06/21 12:01:25;;;;;;;4.82;1.35;;;26.40;99.90;;;;;;4985667;28;20034;-91
2023/06/21 12:04:00;;;;;;;1.38;1.00;;;26.20;99.90;;;;;;4963224;28;20054;-93
2023/06/21 12:06:28;;;;;;;33.97;5.10;;;26.10;99.90;;;;;;4964709;28;20038;-93
2023/06/21 12:08:58;;;;;;;29.70;4.57;;;26.00;99.90;;;;;;4971807;28;20058;-95
2023/06/21 12:11:27;;;;;;;42.38;5.78;;;26.00;99.90;;;;;;4953708;28;20106;-92
2023/06/21 12:13:53;;;;;;;6.18;2.05;;;25.90;99.90;;;;;;4968796;28;20046;-94
2023/06/21 12:16:19;;;;;;;5.72;2.00;;;25.80;99.90;;;;;;4967022;28;20160;-94
2023/06/21 12:18:45;;;;;;;3.43;1.67;;;25.60;99.90;;;;;;4981114;28;20470;-95
2023/06/21 12:21:10;;;;;;;1.70;1.60;;;25.50;99.90;;;;;;4960156;28;20042;-96
2023/06/21 12:23:36;;;;;;;2.50;1.50;;;25.40;99.90;;;;;;4970406;28;20034;-95
2023/06/21 12:26:04;;;;;;;2.07;1.47;;;25.30;99.90;;;;;;4978124;28;20043;-94
2023/06/21 12:28:31;;;;;;;2.53;1.40;;;25.10;99.90;;;;;;4976609;28;20481;-96
2023/06/21 12:30:59;;;;;;;2.60;1.15;;;25.20;99.90;;;;;;4979887;28;20092;-95
2023/06/21 12:33:27;;;;;;;2.58;1.83;;;25.30;99.90;;;;;;4990771;28;20126;-95
2023/06/21 12:36:12;;;;;;;3.70;2.10;;;25.40;99.90;;;;;;4991672;28;20069;-94
2023/06/21 12:38:38;;;;;;;4.88;2.30;;;25.60;99.90;;;;;;4989986;28;20102;-96
2023/06/21 12:41:03;;;;;;;4.10;2.50;;;25.60;99.90;;;;;;4968611;28;20129;-93
2023/06/21 12:43:43;;;;;;;3.43;2.57;;;25.70;99.90;;;;;;4982873;28;20038;-95
2023/06/21 12:46:10;;;;;;;3.90;2.70;;;25.70;99.90;;;;;;5006575;28;20127;-94
2023/06/21 12:48:42;;;;;;;2.78;2.38;;;25.70;99.90;;;;;;5002273;28;20050;-93
2023/06/21 12:51:07;;;;;;;2.85;2.15;;;25.70;99.90;;;;;;4983868;28;20116;-94
2023/06/21 12:53:41;;;;;;;3.00;1.90;;;25.60;99.90;;;;;;5008191;28;20042;-95
2023/06/21 12:56:11;;;;;;;2.60;1.60;;;25.50;99.90;;;;;;4985008;28;20141;-95
2023/06/21 12:58:38;;;;;;;3.80;1.67;;;25.50;99.90;;;;;;4981827;28;20082;-96
2023/06/21 13:01:05;;;;;;;1.98;1.45;;;25.50;99.90;;;;;;4964217;28;20042;-96
2023/06/21 13:03:32;;;;;;;2.88;1.83;;;25.50;99.90;;;;;;4958582;28;20046;-94
2023/06/21 13:06:04;;;;;;;;;;;25.60;99.90;;;;;;4973442;28;20034;-96
2023/06/21 13:08:30;;;;;;;1.75;1.40;;;25.60;99.90;;;;;;4980533;28;20368;-95